sensor_id;sensor_type;location;lat;lon;timestamp;pressure;altitude;pressure_sealevel;temperature;humidity
46638;BME280;32365;46.938;7.390;2022-07-03T06:00:50;95697.72;;;16.73;66.63
46638;BME280;32365;46.938;7.390;2022-07-03T06:03:17;95699.31;;;16.85;66.68
46638;BME280;32365;46.938;7.390;2022-07-03T06:05:44;95705.38;;;16.96;67.09
46638;BME280;32365;46.938;7.390;2022-07-03T06:08:10;95704.88;;;17.09;66.88
46638;BME280;32365;46.938;7.390;2022-07-03T06:10:37;95704.34;;;17.48;65.28
46638;BME280;32365;46.938;7.390;2022-07-03T06:13:05;95702.22;;;17.50;64.47
46638;BME280;32365;46.938;7.390;2022-07-03T06:15:32;95704.34;;;17.48;67.67
46638;BME280;32365;46.938;7.390;2022-07-03T06:18:00;95703.28;;;17.70;65.89
46638;BME280;32365;46.938;7.390;2022-07-03T06:20:27;95699.06;;;17.64;66.81
46638;BME280;32365;46.938;7.390;2022-07-03T06:22:53;95700.34;;;17.82;67.19
46638;BME280;32365;46.938;7.390;2022-07-03T06:25:20;95701.91;;;17.98;65.75
46638;BME280;32365;46.938;7.390;2022-07-03T06:27:47;95698.75;;;18.07;66.84
46638;BME280;32365;46.938;7.390;2022-07-03T06:30:13;95696.63;;;18.14;66.56
46638;BME280;32365;46.938;7.390;2022-07-03T06:32:40;95695.78;;;18.34;64.81
46638;BME280;32365;46.938;7.390;2022-07-03T06:35:08;95691.50;;;18.49;63.69
46638;BME280;32365;46.938;7.390;2022-07-03T06:37:35;95685.78;;;18.41;65.53
46638;BME280;32365;46.938;7.390;2022-07-03T06:40:02;95681.81;;;18.49;64.50
46638;BME280;32365;46.938;7.390;2022-07-03T06:42:29;95678.06;;;18.60;67.26
46638;BME280;32365;46.938;7.390;2022-07-03T06:44:56;95685.81;;;18.81;63.51
46638;BME280;32365;46.938;7.390;2022-07-03T06:47:22;95679.13;;;19.04;65.02
46638;BME280;32365;46.938;7.390;2022-07-03T06:49:49;95676.56;;;18.89;64.77
46638;BME280;32365;46.938;7.390;2022-07-03T06:52:17;95676.25;;;19.01;66.02
46638;BME280;32365;46.938;7.390;2022-07-03T06:54:44;95676.69;;;19.13;65.50
46638;BME280;32365;46.938;7.390;2022-07-03T06:57:11;95675.38;;;19.45;64.87
46638;BME280;32365;46.938;7.390;2022-07-03T06:59:37;95671.50;;;19.67;63.57
46638;BME280;32365;46.938;7.390;2022-07-03T07:02:04;95670.75;;;19.91;63.55
46638;BME280;32365;46.938;7.390;2022-07-03T07:04:31;95670.28;;;19.83;63.07
46638;BME280;32365;46.938;7.390;2022-07-03T07:06:58;95663.91;;;19.90;63.57
46638;BME280;32365;46.938;7.390;2022-07-03T07:09:26;95665.28;;;19.82;61.70
46638;BME280;32365;46.938;7.390;2022-07-03T07:11:53;95665.38;;;20.01;61.42
46638;BME280;32365;46.938;7.390;2022-07-03T07:14:20;95669.41;;;20.37;61.30
46638;BME280;32365;46.938;7.390;2022-07-03T07:16:46;95664.25;;;20.07;60.50
46638;BME280;32365;46.938;7.390;2022-07-03T07:19:13;95665.78;;;20.52;59.60
46638;BME280;32365;46.938;7.390;2022-07-03T07:21:40;95663.16;;;20.52;60.54
46638;BME280;32365;46.938;7.390;2022-07-03T07:24:07;95662.53;;;20.79;59.43
46638;BME280;32365;46.938;7.390;2022-07-03T07:26:35;95660.72;;;20.80;57.28
46638;BME280;32365;46.938;7.390;2022-07-03T07:29:01;95653.50;;;21.04;56.69
46638;BME280;32365;46.938;7.390;2022-07-03T07:31:28;95653.56;;;20.99;59.26
46638;BME280;32365;46.938;7.390;2022-07-03T07:33:55;95661.63;;;21.22;57.57
46638;BME280;32365;46.938;7.390;2022-07-03T07:36:21;95649.09;;;21.47;55.74
46638;BME280;32365;46.938;7.390;2022-07-03T07:38:48;95651.88;;;21.70;54.45
46638;BME280;32365;46.938;7.390;2022-07-03T07:41:15;95649.34;;;21.64;54.35
46638;BME280;32365;46.938;7.390;2022-07-03T07:43:43;95649.16;;;21.75;54.57
46638;BME280;32365;46.938;7.390;2022-07-03T07:46:10;95643.19;;;22.11;53.73
46638;BME280;32365;46.938;7.390;2022-07-03T07:48:36;95642.19;;;22.21;52.85
46638;BME280;32365;46.938;7.390;2022-07-03T07:51:04;95639.75;;;22.10;51.64
46638;BME280;32365;46.938;7.390;2022-07-03T07:53:30;95643.16;;;22.25;51.84
46638;BME280;32365;46.938;7.390;2022-07-03T07:55:57;95641.75;;;22.55;52.12
46638;BME280;32365;46.938;7.390;2022-07-03T07:58:24;95646.31;;;22.86;51.56
46638;BME280;32365;46.938;7.390;2022-07-03T08:00:52;95633.28;;;22.67;52.26
46638;BME280;32365;46.938;7.390;2022-07-03T08:03:36;95638.13;;;22.88;49.96
46638;BME280;32365;46.938;7.390;2022-07-03T08:06:20;95637.50;;;23.14;49.46
46638;BME280;32365;46.938;7.390;2022-07-03T08:08:46;95638.88;;;23.11;50.62
46638;BME280;32365;46.938;7.390;2022-07-03T08:11:13;95649.84;;;23.04;52.55
46638;BME280;32365;46.938;7.390;2022-07-03T08:13:39;95646.34;;;23.09;50.55
46638;BME280;32365;46.938;7.390;2022-07-03T08:16:08;95648.28;;;23.49;50.41
46638;BME280;32365;46.938;7.390;2022-07-03T08:18:35;95648.25;;;23.80;49.04
46638;BME280;32365;46.938;7.390;2022-07-03T08:21:02;95647.19;;;23.81;48.98
46638;BME280;32365;46.938;7.390;2022-07-03T08:23:29;95648.97;;;24.04;48.03
46638;BME280;32365;46.938;7.390;2022-07-03T08:25:55;95647.91;;;24.13;46.27
46638;BME280;32365;46.938;7.390;2022-07-03T08:28:22;95642.31;;;24.24;46.13
46638;BME280;32365;46.938;7.390;2022-07-03T08:30:49;95641.88;;;24.57;46.35
46638;BME280;32365;46.938;7.390;2022-07-03T08:33:17;95644.25;;;24.76;45.48
46638;BME280;32365;46.938;7.390;2022-07-03T08:35:43;95628.66;;;24.92;43.84
46638;BME280;32365;46.938;7.390;2022-07-03T08:38:10;95639.84;;;25.07;43.17
46638;BME280;32365;46.938;7.390;2022-07-03T08:40:39;95634.75;;;25.58;43.64
46638;BME280;32365;46.938;7.390;2022-07-03T08:43:06;95627.09;;;25.65;42.73
46638;BME280;32365;46.938;7.390;2022-07-03T08:45:33;95633.94;;;25.96;41.23
46638;BME280;32365;46.938;7.390;2022-07-03T08:48:02;95644.25;;;26.70;40.07
46638;BME280;32365;46.938;7.390;2022-07-03T08:50:32;95632.59;;;27.17;38.38
46638;BME280;32365;46.938;7.390;2022-07-03T08:52:59;95633.25;;;27.97;37.46
46638;BME280;32365;46.938;7.390;2022-07-03T08:55:28;95641.91;;;28.19;36.01
46638;BME280;32365;46.938;7.390;2022-07-03T08:57:55;95633.59;;;27.58;38.47
46638;BME280;32365;46.938;7.390;2022-07-03T09:00:25;95627.59;;;29.21;35.71
46638;BME280;32365;46.938;7.390;2022-07-03T09:02:53;95635.97;;;30.35;31.86
46638;BME280;32365;46.938;7.390;2022-07-03T09:05:21;95635.88;;;30.32;29.29
46638;BME280;32365;46.938;7.390;2022-07-03T09:07:49;95628.19;;;30.85;31.61
46638;BME280;32365;46.938;7.390;2022-07-03T09:10:17;95636.81;;;31.18;32.66
46638;BME280;32365;46.938;7.390;2022-07-03T09:12:45;95625.72;;;31.39;30.83
46638;BME280;32365;46.938;7.390;2022-07-03T09:15:13;95633.72;;;31.62;29.60
46638;BME280;32365;46.938;7.390;2022-07-03T09:17:40;95632.50;;;33.02;26.75
46638;BME280;32365;46.938;7.390;2022-07-03T09:20:27;95632.88;;;30.53;28.75
46638;BME280;32365;46.938;7.390;2022-07-03T09:23:08;95634.28;;;30.47;31.38
46638;BME280;32365;46.938;7.390;2022-07-03T09:25:35;95619.16;;;31.13;31.13
46638;BME280;32365;46.938;7.390;2022-07-03T09:28:02;95614.84;;;32.29;27.76
46638;BME280;32365;46.938;7.390;2022-07-03T09:30:29;95624.97;;;32.46;28.13
46638;BME280;32365;46.938;7.390;2022-07-03T09:32:55;95629.44;;;32.69;24.70
46638;BME280;32365;46.938;7.390;2022-07-03T09:35:24;95624.00;;;33.34;24.47
46638;BME280;32365;46.938;7.390;2022-07-03T09:37:54;95621.66;;;30.83;28.63
46638;BME280;32365;46.938;7.390;2022-07-03T09:40:22;95621.44;;;32.38;26.05
46638;BME280;32365;46.938;7.390;2022-07-03T09:43:00;95617.13;;;32.30;25.93
46638;BME280;32365;46.938;7.390;2022-07-03T09:45:28;95617.72;;;31.66;25.32
46638;BME280;32365;46.938;7.390;2022-07-03T09:48:24;95609.97;;;31.34;27.68
46638;BME280;32365;46.938;7.390;2022-07-03T09:51:08;95606.16;;;32.73;24.93
46638;BME280;32365;46.938;7.390;2022-07-03T09:53:53;95612.66;;;34.03;24.91
46638;BME280;32365;46.938;7.390;2022-07-03T09:56:22;95607.97;;;33.89;25.24
46638;BME280;32365;46.938;7.390;2022-07-03T09:59:15;95605.28;;;34.67;24.49
46638;BME280;32365;46.938;7.390;2022-07-03T10:01:43;95599.91;;;34.67;23.27
46638;BME280;32365;46.938;7.390;2022-07-03T10:04:16;95602.63;;;34.81;23.52
46638;BME280;32365;46.938;7.390;2022-07-03T10:06:47;95600.00;;;34.92;23.06
46638;BME280;32365;46.938;7.390;2022-07-03T10:09:15;95590.69;;;34.61;24.23
46638;BME280;32365;46.938;7.390;2022-07-03T10:11:45;95591.47;;;34.83;24.80
46638;BME280;32365;46.938;7.390;2022-07-03T10:14:13;95596.28;;;34.30;23.17
46638;BME280;32365;46.938;7.390;2022-07-03T10:16:41;95585.03;;;35.78;22.44
46638;BME280;32365;46.938;7.390;2022-07-03T10:19:13;95587.97;;;34.57;24.68
46638;BME280;32365;46.938;7.390;2022-07-03T10:21:42;95587.00;;;34.13;24.40
46638;BME280;32365;46.938;7.390;2022-07-03T10:24:10;95586.97;;;35.16;25.91
46638;BME280;32365;46.938;7.390;2022-07-03T10:26:38;95588.81;;;33.91;27.66
46638;BME280;32365;46.938;7.390;2022-07-03T10:29:08;95577.38;;;35.66;25.10
46638;BME280;32365;46.938;7.390;2022-07-03T10:31:36;95578.91;;;35.49;23.79
46638;BME280;32365;46.938;7.390;2022-07-03T10:34:04;95583.88;;;34.96;23.59
46638;BME280;32365;46.938;7.390;2022-07-03T10:36:31;95581.19;;;35.72;23.50
46638;BME280;32365;46.938;7.390;2022-07-03T10:39:02;95570.44;;;35.68;24.45
46638;BME280;32365;46.938;7.390;2022-07-03T10:41:34;95582.31;;;36.00;23.08
46638;BME280;32365;46.938;7.390;2022-07-03T10:44:25;95576.69;;;36.65;23.61
46638;BME280;32365;46.938;7.390;2022-07-03T10:50:12;95579.38;;;36.69;24.13
46638;BME280;32365;46.938;7.390;2022-07-03T10:52:40;95562.47;;;36.57;22.41
46638;BME280;32365;46.938;7.390;2022-07-03T10:55:08;95570.38;;;36.97;21.34
46638;BME280;32365;46.938;7.390;2022-07-03T10:57:35;95565.06;;;35.57;24.29
46638;BME280;32365;46.938;7.390;2022-07-03T11:00:13;95567.63;;;36.19;22.70
46638;BME280;32365;46.938;7.390;2022-07-03T11:02:42;95575.03;;;35.06;26.05
46638;BME280;32365;46.938;7.390;2022-07-03T11:05:17;95567.16;;;36.39;23.22
46638;BME280;32365;46.938;7.390;2022-07-03T11:08:07;95570.78;;;36.88;21.71
46638;BME280;32365;46.938;7.390;2022-07-03T11:10:43;95573.84;;;36.94;21.33
46638;BME280;32365;46.938;7.390;2022-07-03T11:13:34;95563.06;;;37.88;21.60
46638;BME280;32365;46.938;7.390;2022-07-03T11:16:04;95558.72;;;38.60;19.54
46638;BME280;32365;46.938;7.390;2022-07-03T11:18:56;95566.00;;;38.94;20.58
46638;BME280;32365;46.938;7.390;2022-07-03T11:21:33;95567.00;;;38.77;19.56
46638;BME280;32365;46.938;7.390;2022-07-03T11:24:37;95561.50;;;37.91;21.87
46638;BME280;32365;46.938;7.390;2022-07-03T11:27:17;95553.94;;;38.10;20.55
46638;BME280;32365;46.938;7.390;2022-07-03T11:29:58;95553.59;;;37.20;20.92
46638;BME280;32365;46.938;7.390;2022-07-03T11:32:52;95551.88;;;37.45;22.24
46638;BME280;32365;46.938;7.390;2022-07-03T11:35:48;95543.75;;;38.83;21.32
46638;BME280;32365;46.938;7.390;2022-07-03T11:38:23;95540.91;;;38.36;21.17
46638;BME280;32365;46.938;7.390;2022-07-03T11:40:55;95538.78;;;38.78;20.65
46638;BME280;32365;46.938;7.390;2022-07-03T11:43:30;95534.88;;;38.83;20.46
46638;BME280;32365;46.938;7.390;2022-07-03T11:46:02;95535.38;;;38.46;20.97
46638;BME280;32365;46.938;7.390;2022-07-03T11:48:33;95534.47;;;36.29;24.11
46638;BME280;32365;46.938;7.390;2022-07-03T11:51:07;95527.19;;;34.23;27.58
46638;BME280;32365;46.938;7.390;2022-07-03T11:53:46;95525.00;;;34.65;28.15
46638;BME280;32365;46.938;7.390;2022-07-03T11:56:19;95526.50;;;36.08;25.49
46638;BME280;32365;46.938;7.390;2022-07-03T11:58:47;95513.91;;;35.36;25.13
46638;BME280;32365;46.938;7.390;2022-07-03T12:01:31;95513.16;;;35.13;26.88
46638;BME280;32365;46.938;7.390;2022-07-03T12:04:08;95516.97;;;36.66;24.10
46638;BME280;32365;46.938;7.390;2022-07-03T12:06:37;95513.53;;;35.34;23.90
46638;BME280;32365;46.938;7.390;2022-07-03T12:09:12;95513.66;;;37.88;21.66
46638;BME280;32365;46.938;7.390;2022-07-03T12:11:39;95510.25;;;37.80;21.62
46638;BME280;32365;46.938;7.390;2022-07-03T12:14:06;95507.16;;;38.47;21.61
46638;BME280;32365;46.938;7.390;2022-07-03T12:16:33;95500.31;;;36.08;23.52
46638;BME280;32365;46.938;7.390;2022-07-03T12:19:04;95504.53;;;37.33;21.95
46638;BME280;32365;46.938;7.390;2022-07-03T12:21:41;95504.06;;;36.32;22.60
46638;BME280;32365;46.938;7.390;2022-07-03T12:24:13;95498.94;;;38.82;21.10
46638;BME280;32365;46.938;7.390;2022-07-03T12:26:40;95500.97;;;39.02;19.47
46638;BME280;32365;46.938;7.390;2022-07-03T12:29:09;95495.75;;;40.72;16.99
46638;BME280;32365;46.938;7.390;2022-07-03T12:31:38;95494.28;;;39.94;20.48
46638;BME280;32365;46.938;7.390;2022-07-03T12:34:05;95482.81;;;39.22;18.60
46638;BME280;32365;46.938;7.390;2022-07-03T12:36:32;95488.09;;;39.06;18.29
46638;BME280;32365;46.938;7.390;2022-07-03T12:39:00;95481.97;;;40.30;17.61
46638;BME280;32365;46.938;7.390;2022-07-03T12:41:27;95485.13;;;38.73;20.25
46638;BME280;32365;46.938;7.390;2022-07-03T12:43:55;95484.28;;;37.10;20.89
46638;BME280;32365;46.938;7.390;2022-07-03T12:46:23;95483.97;;;37.46;21.33
46638;BME280;32365;46.938;7.390;2022-07-03T12:48:51;95480.84;;;37.86;23.04
46638;BME280;32365;46.938;7.390;2022-07-03T12:51:38;95483.66;;;37.37;24.63
46638;BME280;32365;46.938;7.390;2022-07-03T12:54:07;95484.13;;;38.36;21.58
46638;BME280;32365;46.938;7.390;2022-07-03T12:56:34;95483.38;;;37.69;22.71
46638;BME280;32365;46.938;7.390;2022-07-03T12:59:02;95473.81;;;35.96;24.05
46638;BME280;32365;46.938;7.390;2022-07-03T13:01:44;95470.56;;;36.93;24.34
46638;BME280;32365;46.938;7.390;2022-07-03T13:04:12;95471.19;;;35.74;25.40
46638;BME280;32365;46.938;7.390;2022-07-03T13:06:43;95468.53;;;38.16;21.92
46638;BME280;32365;46.938;7.390;2022-07-03T13:09:13;95471.81;;;38.31;22.05
46638;BME280;32365;46.938;7.390;2022-07-03T13:11:41;95469.75;;;37.42;22.75
46638;BME280;32365;46.938;7.390;2022-07-03T13:14:10;95458.75;;;37.22;24.74
46638;BME280;32365;46.938;7.390;2022-07-03T13:16:40;95456.03;;;37.98;22.31
46638;BME280;32365;46.938;7.390;2022-07-03T13:19:07;95461.31;;;38.64;21.81
46638;BME280;32365;46.938;7.390;2022-07-03T13:21:34;95452.25;;;39.22;21.45
46638;BME280;32365;46.938;7.390;2022-07-03T13:24:01;95452.69;;;38.73;19.50
46638;BME280;32365;46.938;7.390;2022-07-03T13:26:30;95454.53;;;37.94;23.68
46638;BME280;32365;46.938;7.390;2022-07-03T13:28:56;95445.50;;;37.73;24.48
46638;BME280;32365;46.938;7.390;2022-07-03T13:31:23;95454.59;;;37.86;22.53
46638;BME280;32365;46.938;7.390;2022-07-03T13:33:50;95453.22;;;39.11;21.28
46638;BME280;32365;46.938;7.390;2022-07-03T13:36:16;95451.34;;;39.93;20.55
46638;BME280;32365;46.938;7.390;2022-07-03T13:38:44;95446.22;;;38.67;22.13
46638;BME280;32365;46.938;7.390;2022-07-03T13:41:11;95449.53;;;37.92;22.50
46638;BME280;32365;46.938;7.390;2022-07-03T13:43:39;95444.13;;;39.02;21.61
46638;BME280;32365;46.938;7.390;2022-07-03T13:46:06;95450.31;;;39.46;19.50
46638;BME280;32365;46.938;7.390;2022-07-03T13:48:33;95445.47;;;39.78;20.43
46638;BME280;32365;46.938;7.390;2022-07-03T13:50:59;95446.59;;;38.65;21.16
46638;BME280;32365;46.938;7.390;2022-07-03T13:53:26;95447.84;;;38.06;22.36
46638;BME280;32365;46.938;7.390;2022-07-03T13:55:55;95436.72;;;39.26;20.28
46638;BME280;32365;46.938;7.390;2022-07-03T13:58:22;95438.00;;;38.19;21.64
46638;BME280;32365;46.938;7.390;2022-07-03T14:00:51;95432.53;;;39.01;21.61
46638;BME280;32365;46.938;7.390;2022-07-03T14:03:18;95434.97;;;39.60;20.14
46638;BME280;32365;46.938;7.390;2022-07-03T14:05:45;95428.66;;;38.24;22.29
46638;BME280;32365;46.938;7.390;2022-07-03T14:08:13;95426.78;;;37.89;23.33
46638;BME280;32365;46.938;7.390;2022-07-03T14:10:40;95428.72;;;39.43;19.03
46638;BME280;32365;46.938;7.390;2022-07-03T14:13:06;95425.81;;;39.74;19.04
46638;BME280;32365;46.938;7.390;2022-07-03T14:15:33;95434.78;;;40.44;18.85
46638;BME280;32365;46.938;7.390;2022-07-03T14:18:01;95428.56;;;39.50;19.50
46638;BME280;32365;46.938;7.390;2022-07-03T14:20:29;95422.41;;;37.30;23.40
46638;BME280;32365;46.938;7.390;2022-07-03T14:22:55;95437.53;;;37.97;20.78
46638;BME280;32365;46.938;7.390;2022-07-03T14:25:22;95430.09;;;39.51;20.19
46638;BME280;32365;46.938;7.390;2022-07-03T14:27:49;95434.06;;;39.66;20.77
46638;BME280;32365;46.938;7.390;2022-07-03T14:30:33;95430.75;;;38.67;21.66
46638;BME280;32365;46.938;7.390;2022-07-03T14:33:19;95435.47;;;38.87;22.99
46638;BME280;32365;46.938;7.390;2022-07-03T14:35:45;95433.22;;;39.05;21.45
46638;BME280;32365;46.938;7.390;2022-07-03T14:38:12;95426.19;;;39.32;20.19
46638;BME280;32365;46.938;7.390;2022-07-03T14:40:39;95427.91;;;40.39;18.64
46638;BME280;32365;46.938;7.390;2022-07-03T14:43:06;95425.66;;;39.61;18.90
46638;BME280;32365;46.938;7.390;2022-07-03T14:45:32;95428.75;;;38.16;20.81
46638;BME280;32365;46.938;7.390;2022-07-03T14:47:59;95422.28;;;38.65;20.57
46638;BME280;32365;46.938;7.390;2022-07-03T14:50:27;95426.41;;;38.18;21.14
46638;BME280;32365;46.938;7.390;2022-07-03T14:52:54;95423.09;;;39.09;20.16
46638;BME280;32365;46.938;7.390;2022-07-03T14:55:20;95421.81;;;39.58;19.83
46638;BME280;32365;46.938;7.390;2022-07-03T14:57:53;95423.91;;;39.70;19.32
46638;BME280;32365;46.938;7.390;2022-07-03T15:00:26;95418.94;;;38.81;19.61
46638;BME280;32365;46.938;7.390;2022-07-03T15:03:03;95425.16;;;38.78;20.06
46638;BME280;32365;46.938;7.390;2022-07-03T15:05:33;95419.75;;;36.81;22.51
46638;BME280;32365;46.938;7.390;2022-07-03T15:08:08;95415.47;;;36.34;26.77
46638;BME280;32365;46.938;7.390;2022-07-03T15:10:38;95416.81;;;37.52;22.51
46638;BME280;32365;46.938;7.390;2022-07-03T15:13:05;95412.34;;;36.96;23.37
46638;BME280;32365;46.938;7.390;2022-07-03T15:15:33;95411.53;;;37.37;23.45
46638;BME280;32365;46.938;7.390;2022-07-03T15:18:01;95416.75;;;37.21;22.00
46638;BME280;32365;46.938;7.390;2022-07-03T15:20:32;95415.94;;;35.11;25.54
46638;BME280;32365;46.938;7.390;2022-07-03T15:23:00;95402.22;;;32.89;26.60
46638;BME280;32365;46.938;7.390;2022-07-03T15:25:29;95405.66;;;32.07;29.14
46638;BME280;32365;46.938;7.390;2022-07-03T15:27:55;95396.03;;;32.81;29.40
46638;BME280;32365;46.938;7.390;2022-07-03T15:30:23;95401.00;;;32.34;31.96
46638;BME280;32365;46.938;7.390;2022-07-03T15:32:51;95389.66;;;33.04;31.40
46638;BME280;32365;46.938;7.390;2022-07-03T15:35:19;95390.53;;;34.15;27.74
46638;BME280;32365;46.938;7.390;2022-07-03T15:38:10;95385.44;;;33.73;29.58
46638;BME280;32365;46.938;7.390;2022-07-03T15:40:45;95387.50;;;34.85;28.80
46638;BME280;32365;46.938;7.390;2022-07-03T15:43:30;95390.97;;;34.96;26.65
46638;BME280;32365;46.938;7.390;2022-07-03T15:46:03;95388.13;;;33.77;28.55
46638;BME280;32365;46.938;7.390;2022-07-03T15:48:40;95379.09;;;36.04;25.51
46638;BME280;32365;46.938;7.390;2022-07-03T15:51:17;95380.78;;;35.73;26.21
46638;BME280;32365;46.938;7.390;2022-07-03T15:53:50;95381.34;;;34.23;26.55
46638;BME280;32365;46.938;7.390;2022-07-03T15:56:21;95376.72;;;34.05;27.69
46638;BME280;32365;46.938;7.390;2022-07-03T15:58:54;95363.72;;;33.23;28.86
46638;BME280;32365;46.938;7.390;2022-07-03T16:01:24;95365.38;;;33.45;29.03
46638;BME280;32365;46.938;7.390;2022-07-03T16:04:10;95365.78;;;32.36;29.89
46638;BME280;32365;46.938;7.390;2022-07-03T16:06:38;95361.09;;;31.88;32.44
46638;BME280;32365;46.938;7.390;2022-07-03T16:09:08;95353.72;;;32.15;30.47
46638;BME280;32365;46.938;7.390;2022-07-03T16:11:36;95349.00;;;32.43;31.02
46638;BME280;32365;46.938;7.390;2022-07-03T16:14:03;95354.66;;;31.92;30.11
46638;BME280;32365;46.938;7.390;2022-07-03T16:16:31;95357.19;;;31.78;31.06
46638;BME280;32365;46.938;7.390;2022-07-03T16:19:01;95352.44;;;31.33;30.93
46638;BME280;32365;46.938;7.390;2022-07-03T16:21:29;95353.94;;;31.31;30.29
46638;BME280;32365;46.938;7.390;2022-07-03T16:23:58;95357.72;;;31.94;33.40
46638;BME280;32365;46.938;7.390;2022-07-03T16:26:28;95358.63;;;31.72;30.19
46638;BME280;32365;46.938;7.390;2022-07-03T16:28:55;95350.06;;;31.93;29.55
46638;BME280;32365;46.938;7.390;2022-07-03T16:31:26;95356.41;;;31.77;31.32
46638;BME280;32365;46.938;7.390;2022-07-03T16:34:01;95345.81;;;31.88;31.02
46638;BME280;32365;46.938;7.390;2022-07-03T16:36:30;95343.25;;;31.65;31.82
46638;BME280;32365;46.938;7.390;2022-07-03T16:39:02;95345.03;;;31.54;31.34
46638;BME280;32365;46.938;7.390;2022-07-03T16:41:33;95346.97;;;31.57;32.08
46638;BME280;32365;46.938;7.390;2022-07-03T16:44:04;95343.41;;;30.88;34.79
46638;BME280;32365;46.938;7.390;2022-07-03T16:46:32;95342.03;;;30.71;33.87
46638;BME280;32365;46.938;7.390;2022-07-03T16:49:01;95336.38;;;30.76;35.02
46638;BME280;32365;46.938;7.390;2022-07-03T16:51:32;95337.50;;;30.75;35.42
46638;BME280;32365;46.938;7.390;2022-07-03T16:54:00;95335.19;;;30.50;37.13
46638;BME280;32365;46.938;7.390;2022-07-03T16:56:27;95333.59;;;30.46;35.67
46638;BME280;32365;46.938;7.390;2022-07-03T16:58:57;95333.31;;;29.85;35.65
46638;BME280;32365;46.938;7.390;2022-07-03T17:01:25;95324.78;;;29.56;37.65
46638;BME280;32365;46.938;7.390;2022-07-03T17:03:52;95322.88;;;29.37;36.53
46638;BME280;32365;46.938;7.390;2022-07-03T17:06:22;95330.59;;;29.81;37.35
46638;BME280;32365;46.938;7.390;2022-07-03T17:08:50;95329.03;;;29.21;35.77
46638;BME280;32365;46.938;7.390;2022-07-03T17:11:17;95332.72;;;28.97;38.32
46638;BME280;32365;46.938;7.390;2022-07-03T17:13:43;95338.78;;;29.13;38.04
46638;BME280;32365;46.938;7.390;2022-07-03T17:16:12;95338.16;;;29.20;38.44
46638;BME280;32365;46.938;7.390;2022-07-03T17:18:44;95333.50;;;28.97;38.00
46638;BME280;32365;46.938;7.390;2022-07-03T17:21:15;95338.94;;;28.85;37.87
46638;BME280;32365;46.938;7.390;2022-07-03T17:23:45;95338.56;;;28.86;38.95
46638;BME280;32365;46.938;7.390;2022-07-03T17:26:13;95344.44;;;29.12;39.29
46638;BME280;32365;46.938;7.390;2022-07-03T17:28:46;95342.38;;;29.21;39.02
46638;BME280;32365;46.938;7.390;2022-07-03T17:31:17;95328.19;;;28.81;41.79
46638;BME280;32365;46.938;7.390;2022-07-03T17:33:45;95330.66;;;28.90;38.22
46638;BME280;32365;46.938;7.390;2022-07-03T17:36:18;95334.41;;;29.05;40.27
46638;BME280;32365;46.938;7.390;2022-07-03T17:38:46;95341.94;;;29.19;40.23
46638;BME280;32365;46.938;7.390;2022-07-03T17:41:16;95343.88;;;29.02;38.93
46638;BME280;32365;46.938;7.390;2022-07-03T17:43:43;95341.56;;;29.21;37.50
46638;BME280;32365;46.938;7.390;2022-07-03T17:46:12;95335.16;;;29.41;38.76
46638;BME280;32365;46.938;7.390;2022-07-03T17:48:41;95340.84;;;29.40;38.55
46638;BME280;32365;46.938;7.390;2022-07-03T17:51:09;95332.41;;;29.18;37.78
46638;BME280;32365;46.938;7.390;2022-07-03T17:53:37;95323.72;;;29.05;38.50
46638;BME280;32365;46.938;7.390;2022-07-03T17:56:08;95334.94;;;29.50;38.49
46638;BME280;32365;46.938;7.390;2022-07-03T17:58:35;95345.22;;;29.68;37.90
46638;BME280;32365;46.938;7.390;2022-07-03T18:01:03;95348.34;;;29.34;37.65
46638;BME280;32365;46.938;7.390;2022-07-03T18:03:31;95346.47;;;29.18;38.06
46638;BME280;32365;46.938;7.390;2022-07-03T18:05:59;95354.34;;;29.67;38.80
46638;BME280;32365;46.938;7.390;2022-07-03T18:08:30;95341.91;;;29.35;39.90
46638;BME280;32365;46.938;7.390;2022-07-03T18:11:02;95333.06;;;29.70;39.93
46638;BME280;32365;46.938;7.390;2022-07-03T18:13:33;95332.97;;;29.47;42.33
46638;BME280;32365;46.938;7.390;2022-07-03T18:16:07;95319.69;;;29.31;43.49
46638;BME280;32365;46.938;7.390;2022-07-03T18:18:37;95311.94;;;29.42;39.38
46638;BME280;32365;46.938;7.390;2022-07-03T18:21:08;95311.13;;;29.22;40.03
46638;BME280;32365;46.938;7.390;2022-07-03T18:23:37;95309.28;;;29.06;40.17
46638;BME280;32365;46.938;7.390;2022-07-03T18:26:07;95297.53;;;28.23;44.20
46638;BME280;32365;46.938;7.390;2022-07-03T18:28:36;95294.03;;;27.75;44.21
46638;BME280;32365;46.938;7.390;2022-07-03T18:31:04;95292.38;;;27.54;44.94
46638;BME280;32365;46.938;7.390;2022-07-03T18:33:32;95295.09;;;27.29;45.31
46638;BME280;32365;46.938;7.390;2022-07-03T18:35:59;95285.34;;;27.05;46.23
46638;BME280;32365;46.938;7.390;2022-07-03T18:38:28;95290.88;;;26.87;48.29
46638;BME280;32365;46.938;7.390;2022-07-03T18:40:56;95280.63;;;26.61;48.42
46638;BME280;32365;46.938;7.390;2022-07-03T18:43:24;95283.81;;;26.67;48.58
46638;BME280;32365;46.938;7.390;2022-07-03T18:45:54;95290.13;;;26.74;47.46
46638;BME280;32365;46.938;7.390;2022-07-03T18:48:20;95285.69;;;26.66;48.66
46638;BME280;32365;46.938;7.390;2022-07-03T18:50:48;95288.78;;;26.56;51.61
46638;BME280;32365;46.938;7.390;2022-07-03T18:53:20;95311.38;;;26.62;48.86
46638;BME280;32365;46.938;7.390;2022-07-03T18:55:58;95332.59;;;26.25;50.84
46638;BME280;32365;46.938;7.390;2022-07-03T18:58:33;95340.53;;;26.25;50.19
46638;BME280;32365;46.938;7.390;2022-07-03T19:01:02;95339.63;;;26.21;51.63
46638;BME280;32365;46.938;7.390;2022-07-03T19:03:42;95356.59;;;26.41;50.75
46638;BME280;32365;46.938;7.390;2022-07-03T19:06:13;95386.69;;;26.45;51.12
46638;BME280;32365;46.938;7.390;2022-07-03T19:08:48;95387.41;;;26.21;52.31
46638;BME280;32365;46.938;7.390;2022-07-03T19:11:20;95388.53;;;26.32;53.18
46638;BME280;32365;46.938;7.390;2022-07-03T19:13:53;95406.19;;;26.16;57.76
46638;BME280;32365;46.938;7.390;2022-07-03T19:16:25;95479.50;;;26.20;54.07
46638;BME280;32365;46.938;7.390;2022-07-03T19:18:58;95550.28;;;25.98;54.13